sensor_id;sensor_type;location;lat;lon;timestamp;P1;durP1;ratioP1;P2;durP2;ratioP2
28958;SDS011;16066;0.000;0.000;2023-04-15T00:01:33;4.60;;;2.87;;
28958;SDS011;16066;0.000;0.000;2023-04-15T00:04:01;3.87;;;3.00;;
28958;SDS011;16066;0.000;0.000;2023-04-15T00:06:26;6.17;;;3.30;;
28958;SDS011;16066;0.000;0.000;2023-04-15T00:08:52;5.73;;;3.10;;
28958;SDS011;16066;0.000;0.000;2023-04-15T00:11:17;3.67;;;2.60;;
28958;SDS011;16066;0.000;0.000;2023-04-15T00:13:44;5.47;;;3.20;;
28958;SDS011;16066;0.000;0.000;2023-04-15T00:16:09;5.00;;;3.37;;
28958;SDS011;16066;0.000;0.000;2023-04-15T00:18:36;4.07;;;2.47;;
28958;SDS011;16066;0.000;0.000;2023-04-15T00:21:03;4.87;;;2.40;;
28958;SDS011;16066;0.000;0.000;2023-04-15T00:23:29;4.93;;;3.23;;
28958;SDS011;16066;0.000;0.000;2023-04-15T00:25:55;3.40;;;2.80;;
28958;SDS011;16066;0.000;0.000;2023-04-15T00:28:21;4.50;;;2.97;;
28958;SDS011;16066;0.000;0.000;2023-04-15T00:30:46;3.37;;;2.77;;
28958;SDS011;16066;0.000;0.000;2023-04-15T00:33:13;3.30;;;2.60;;
28958;SDS011;16066;0.000;0.000;2023-04-15T00:35:40;3.93;;;3.00;;
28958;SDS011;16066;0.000;0.000;2023-04-15T00:38:06;4.40;;;3.27;;
28958;SDS011;16066;0.000;0.000;2023-04-15T00:40:34;4.40;;;3.30;;
28958;SDS011;16066;0.000;0.000;2023-04-15T00:43:00;3.10;;;2.50;;
28958;SDS011;16066;0.000;0.000;2023-04-15T00:45:26;4.80;;;3.10;;
28958;SDS011;16066;0.000;0.000;2023-04-15T00:47:54;4.10;;;2.93;;
28958;SDS011;16066;0.000;0.000;2023-04-15T00:50:20;4.50;;;2.87;;
28958;SDS011;16066;0.000;0.000;2023-04-15T00:52:46;4.43;;;3.03;;
28958;SDS011;16066;0.000;0.000;2023-04-15T00:55:12;3.13;;;2.70;;
28958;SDS011;16066;0.000;0.000;2023-04-15T00:57:38;3.80;;;3.00;;
28958;SDS011;16066;0.000;0.000;2023-04-15T01:00:04;4.40;;;3.40;;
28958;SDS011;16066;0.000;0.000;2023-04-15T01:02:33;3.97;;;2.63;;
28958;SDS011;16066;0.000;0.000;2023-04-15T01:04:59;3.70;;;2.67;;
28958;SDS011;16066;0.000;0.000;2023-04-15T01:07:24;3.80;;;2.90;;
28958;SDS011;16066;0.000;0.000;2023-04-15T01:09:51;3.73;;;3.03;;
28958;SDS011;16066;0.000;0.000;2023-04-15T01:12:17;5.03;;;3.57;;
28958;SDS011;16066;0.000;0.000;2023-04-15T01:14:43;4.07;;;2.90;;
28958;SDS011;16066;0.000;0.000;2023-04-15T01:17:09;3.23;;;2.80;;
28958;SDS011;16066;0.000;0.000;2023-04-15T01:19:35;3.63;;;3.20;;
28958;SDS011;16066;0.000;0.000;2023-04-15T01:22:01;5.43;;;3.60;;
28958;SDS011;16066;0.000;0.000;2023-04-15T01:24:27;6.40;;;3.17;;
28958;SDS011;16066;0.000;0.000;2023-04-15T01:26:55;3.53;;;3.17;;
28958;SDS011;16066;0.000;0.000;2023-04-15T01:29:21;4.60;;;3.60;;
28958;SDS011;16066;0.000;0.000;2023-04-15T01:31:50;4.50;;;3.80;;
28958;SDS011;16066;0.000;0.000;2023-04-15T01:34:16;5.00;;;3.10;;
28958;SDS011;16066;0.000;0.000;2023-04-15T01:36:42;4.20;;;3.47;;
28958;SDS011;16066;0.000;0.000;2023-04-15T01:39:08;6.27;;;3.50;;
28958;SDS011;16066;0.000;0.000;2023-04-15T01:41:33;4.57;;;3.53;;
28958;SDS011;16066;0.000;0.000;2023-04-15T01:43:59;6.53;;;3.27;;
28958;SDS011;16066;0.000;0.000;2023-04-15T01:46:26;6.50;;;4.07;;
28958;SDS011;16066;0.000;0.000;2023-04-15T01:48:52;5.30;;;3.40;;
28958;SDS011;16066;0.000;0.000;2023-04-15T01:51:17;9.00;;;4.00;;
28958;SDS011;16066;0.000;0.000;2023-04-15T01:53:43;4.63;;;3.57;;
28958;SDS011;16066;0.000;0.000;2023-04-15T01:56:08;5.03;;;4.00;;
28958;SDS011;16066;0.000;0.000;2023-04-15T01:58:34;4.67;;;3.13;;
28958;SDS011;16066;0.000;0.000;2023-04-15T02:00:59;4.10;;;3.53;;
28958;SDS011;16066;0.000;0.000;2023-04-15T02:03:27;5.30;;;3.90;;
28958;SDS011;16066;0.000;0.000;2023-04-15T02:05:53;5.10;;;3.50;;
28958;SDS011;16066;0.000;0.000;2023-04-15T02:08:19;4.93;;;3.10;;
28958;SDS011;16066;0.000;0.000;2023-04-15T02:10:44;6.07;;;4.00;;
28958;SDS011;16066;0.000;0.000;2023-04-15T02:13:10;3.93;;;3.43;;
28958;SDS011;16066;0.000;0.000;2023-04-15T02:15:36;3.80;;;3.40;;
28958;SDS011;16066;0.000;0.000;2023-04-15T02:18:01;5.10;;;3.57;;
28958;SDS011;16066;0.000;0.000;2023-04-15T02:20:27;5.57;;;3.97;;
28958;SDS011;16066;0.000;0.000;2023-04-15T02:22:54;3.97;;;3.40;;
28958;SDS011;16066;0.000;0.000;2023-04-15T02:25:20;5.33;;;3.67;;
28958;SDS011;16066;0.000;0.000;2023-04-15T02:27:46;5.60;;;4.20;;
28958;SDS011;16066;0.000;0.000;2023-04-15T02:30:11;6.43;;;4.07;;
28958;SDS011;16066;0.000;0.000;2023-04-15T02:32:37;8.60;;;3.97;;
28958;SDS011;16066;0.000;0.000;2023-04-15T02:35:05;5.70;;;4.00;;
28958;SDS011;16066;0.000;0.000;2023-04-15T02:37:32;5.33;;;3.80;;
28958;SDS011;16066;0.000;0.000;2023-04-15T02:40:04;4.60;;;3.50;;
28958;SDS011;16066;0.000;0.000;2023-04-15T02:42:31;5.30;;;3.70;;
28958;SDS011;16066;0.000;0.000;2023-04-15T02:44:57;5.30;;;3.77;;
28958;SDS011;16066;0.000;0.000;2023-04-15T02:47:22;7.87;;;3.90;;
28958;SDS011;16066;0.000;0.000;2023-04-15T02:49:48;5.60;;;3.80;;
28958;SDS011;16066;0.000;0.000;2023-04-15T02:52:13;5.30;;;3.70;;
28958;SDS011;16066;0.000;0.000;2023-04-15T02:54:39;5.40;;;3.63;;
28958;SDS011;16066;0.000;0.000;2023-04-15T02:57:04;5.90;;;3.90;;
28958;SDS011;16066;0.000;0.000;2023-04-15T02:59:30;5.33;;;3.60;;
28958;SDS011;16066;0.000;0.000;2023-04-15T03:01:56;6.30;;;3.50;;
28958;SDS011;16066;0.000;0.000;2023-04-15T03:04:24;5.23;;;3.80;;
28958;SDS011;16066;0.000;0.000;2023-04-15T03:06:50;4.97;;;3.70;;
28958;SDS011;16066;0.000;0.000;2023-04-15T03:09:16;5.50;;;4.00;;
28958;SDS011;16066;0.000;0.000;2023-04-15T03:11:41;5.70;;;4.37;;
28958;SDS011;16066;0.000;0.000;2023-04-15T03:14:07;4.30;;;3.70;;
28958;SDS011;16066;0.000;0.000;2023-04-15T03:16:32;5.17;;;3.93;;
28958;SDS011;16066;0.000;0.000;2023-04-15T03:18:58;5.43;;;4.30;;
28958;SDS011;16066;0.000;0.000;2023-04-15T03:21:23;5.57;;;4.10;;
28958;SDS011;16066;0.000;0.000;2023-04-15T03:23:49;6.00;;;4.20;;
28958;SDS011;16066;0.000;0.000;2023-04-15T03:26:28;5.10;;;3.67;;
28958;SDS011;16066;0.000;0.000;2023-04-15T03:28:55;6.70;;;4.10;;
28958;SDS011;16066;0.000;0.000;2023-04-15T03:31:21;4.87;;;3.70;;
28958;SDS011;16066;0.000;0.000;2023-04-15T03:33:47;5.37;;;4.50;;
28958;SDS011;16066;0.000;0.000;2023-04-15T03:36:12;9.77;;;4.40;;
28958;SDS011;16066;0.000;0.000;2023-04-15T03:38:38;4.93;;;4.13;;
28958;SDS011;16066;0.000;0.000;2023-04-15T03:41:04;4.30;;;3.67;;
28958;SDS011;16066;0.000;0.000;2023-04-15T03:43:29;5.40;;;4.10;;
28958;SDS011;16066;0.000;0.000;2023-04-15T03:45:55;5.80;;;4.63;;
28958;SDS011;16066;0.000;0.000;2023-04-15T03:48:21;6.60;;;4.50;;
28958;SDS011;16066;0.000;0.000;2023-04-15T03:50:46;5.07;;;3.50;;
28958;SDS011;16066;0.000;0.000;2023-04-15T03:53:12;6.70;;;4.37;;
28958;SDS011;16066;0.000;0.000;2023-04-15T03:55:37;6.63;;;4.70;;
28958;SDS011;16066;0.000;0.000;2023-04-15T03:58:03;6.27;;;4.53;;
28958;SDS011;16066;0.000;0.000;2023-04-15T04:00:29;5.30;;;4.27;;
28958;SDS011;16066;0.000;0.000;2023-04-15T04:02:55;5.70;;;4.40;;
28958;SDS011;16066;0.000;0.000;2023-04-15T04:05:20;9.13;;;5.00;;
28958;SDS011;16066;0.000;0.000;2023-04-15T04:07:46;5.47;;;4.30;;
28958;SDS011;16066;0.000;0.000;2023-04-15T04:10:11;7.50;;;4.20;;
28958;SDS011;16066;0.000;0.000;2023-04-15T04:12:37;5.37;;;4.30;;
28958;SDS011;16066;0.000;0.000;2023-04-15T04:15:03;7.67;;;5.03;;
28958;SDS011;16066;0.000;0.000;2023-04-15T04:17:29;4.70;;;3.83;;
28958;SDS011;16066;0.000;0.000;2023-04-15T04:19:54;5.83;;;4.57;;
28958;SDS011;16066;0.000;0.000;2023-04-15T04:22:23;5.63;;;4.33;;
28958;SDS011;16066;0.000;0.000;2023-04-15T04:24:49;6.93;;;4.20;;
28958;SDS011;16066;0.000;0.000;2023-04-15T04:27:14;6.50;;;4.67;;
28958;SDS011;16066;0.000;0.000;2023-04-15T04:29:40;5.90;;;4.53;;
28958;SDS011;16066;0.000;0.000;2023-04-15T04:32:06;7.67;;;5.10;;
28958;SDS011;16066;0.000;0.000;2023-04-15T04:34:31;5.90;;;4.57;;
28958;SDS011;16066;0.000;0.000;2023-04-15T04:36:57;6.27;;;4.57;;
28958;SDS011;16066;0.000;0.000;2023-04-15T04:39:22;5.30;;;4.27;;
28958;SDS011;16066;0.000;0.000;2023-04-15T04:41:48;6.50;;;4.97;;
28958;SDS011;16066;0.000;0.000;2023-04-15T04:44:16;5.73;;;4.80;;
28958;SDS011;16066;0.000;0.000;2023-04-15T04:46:41;5.97;;;4.50;;
28958;SDS011;16066;0.000;0.000;2023-04-15T04:49:07;8.00;;;5.20;;
28958;SDS011;16066;0.000;0.000;2023-04-15T04:51:32;8.67;;;5.33;;
28958;SDS011;16066;0.000;0.000;2023-04-15T04:53:58;6.80;;;4.63;;
28958;SDS011;16066;0.000;0.000;2023-04-15T04:56:24;7.07;;;4.80;;
28958;SDS011;16066;0.000;0.000;2023-04-15T04:58:49;8.50;;;4.63;;
28958;SDS011;16066;0.000;0.000;2023-04-15T05:01:15;5.83;;;4.17;;
28958;SDS011;16066;0.000;0.000;2023-04-15T05:03:41;8.50;;;6.07;;
28958;SDS011;16066;0.000;0.000;2023-04-15T05:06:06;6.53;;;4.73;;
28958;SDS011;16066;0.000;0.000;2023-04-15T05:08:32;8.37;;;4.50;;
28958;SDS011;16066;0.000;0.000;2023-04-15T05:10:58;8.60;;;6.00;;
28958;SDS011;16066;0.000;0.000;2023-04-15T05:13:24;5.80;;;4.47;;
28958;SDS011;16066;0.000;0.000;2023-04-15T05:15:50;6.60;;;4.47;;
28958;SDS011;16066;0.000;0.000;2023-04-15T05:18:15;8.60;;;4.40;;
28958;SDS011;16066;0.000;0.000;2023-04-15T05:20:41;6.37;;;4.53;;
28958;SDS011;16066;0.000;0.000;2023-04-15T05:23:06;7.90;;;5.50;;
28958;SDS011;16066;0.000;0.000;2023-04-15T05:25:32;9.90;;;5.03;;
28958;SDS011;16066;0.000;0.000;2023-04-15T05:27:57;8.77;;;4.97;;
28958;SDS011;16066;0.000;0.000;2023-04-15T05:30:23;9.13;;;5.50;;
28958;SDS011;16066;0.000;0.000;2023-04-15T05:32:48;6.33;;;4.77;;
28958;SDS011;16066;0.000;0.000;2023-04-15T05:35:14;7.50;;;4.70;;
28958;SDS011;16066;0.000;0.000;2023-04-15T05:37:40;6.70;;;4.50;;
28958;SDS011;16066;0.000;0.000;2023-04-15T05:40:06;7.07;;;5.10;;
28958;SDS011;16066;0.000;0.000;2023-04-15T05:42:33;10.67;;;7.60;;
28958;SDS011;16066;0.000;0.000;2023-04-15T05:44:59;11.20;;;7.63;;
28958;SDS011;16066;0.000;0.000;2023-04-15T05:47:25;13.83;;;10.00;;
28958;SDS011;16066;0.000;0.000;2023-04-15T05:49:51;18.43;;;12.20;;
28958;SDS011;16066;0.000;0.000;2023-04-15T05:52:16;15.33;;;11.17;;
28958;SDS011;16066;0.000;0.000;2023-04-15T05:54:42;16.10;;;9.90;;
28958;SDS011;16066;0.000;0.000;2023-04-15T05:57:07;15.27;;;9.37;;
28958;SDS011;16066;0.000;0.000;2023-04-15T05:59:33;10.30;;;6.60;;
28958;SDS011;16066;0.000;0.000;2023-04-15T06:01:58;9.77;;;7.03;;
28958;SDS011;16066;0.000;0.000;2023-04-15T06:04:24;10.97;;;7.07;;
28958;SDS011;16066;0.000;0.000;2023-04-15T06:06:50;7.07;;;5.20;;
28958;SDS011;16066;0.000;0.000;2023-04-15T06:09:16;10.17;;;6.90;;
28958;SDS011;16066;0.000;0.000;2023-04-15T06:11:41;8.80;;;6.30;;
28958;SDS011;16066;0.000;0.000;2023-04-15T06:14:07;10.77;;;7.20;;
28958;SDS011;16066;0.000;0.000;2023-04-15T06:16:33;10.63;;;6.17;;
28958;SDS011;16066;0.000;0.000;2023-04-15T06:19:00;9.43;;;6.80;;
28958;SDS011;16066;0.000;0.000;2023-04-15T06:21:26;7.67;;;5.97;;
28958;SDS011;16066;0.000;0.000;2023-04-15T06:23:51;9.50;;;4.90;;
28958;SDS011;16066;0.000;0.000;2023-04-15T06:26:17;7.90;;;5.90;;
28958;SDS011;16066;0.000;0.000;2023-04-15T06:28:42;11.83;;;5.80;;
28958;SDS011;16066;0.000;0.000;2023-04-15T06:31:08;12.53;;;6.37;;
28958;SDS011;16066;0.000;0.000;2023-04-15T06:33:33;10.43;;;7.30;;
28958;SDS011;16066;0.000;0.000;2023-04-15T06:35:59;10.83;;;5.97;;
28958;SDS011;16066;0.000;0.000;2023-04-15T06:38:24;22.83;;;5.50;;
28958;SDS011;16066;0.000;0.000;2023-04-15T06:40:50;6.67;;;4.93;;
28958;SDS011;16066;0.000;0.000;2023-04-15T06:43:16;8.50;;;4.70;;
28958;SDS011;16066;0.000;0.000;2023-04-15T06:45:41;6.90;;;4.17;;
28958;SDS011;16066;0.000;0.000;2023-04-15T06:48:07;7.83;;;4.47;;
28958;SDS011;16066;0.000;0.000;2023-04-15T06:50:32;9.87;;;5.20;;
28958;SDS011;16066;0.000;0.000;2023-04-15T06:52:59;7.13;;;5.20;;
28958;SDS011;16066;0.000;0.000;2023-04-15T06:55:25;11.40;;;4.97;;
28958;SDS011;16066;0.000;0.000;2023-04-15T06:57:51;7.43;;;4.93;;
28958;SDS011;16066;0.000;0.000;2023-04-15T07:00:16;8.40;;;4.80;;
28958;SDS011;16066;0.000;0.000;2023-04-15T07:02:43;11.60;;;5.30;;
28958;SDS011;16066;0.000;0.000;2023-04-15T07:05:08;9.27;;;4.23;;
28958;SDS011;16066;0.000;0.000;2023-04-15T07:07:34;6.23;;;5.00;;
28958;SDS011;16066;0.000;0.000;2023-04-15T07:10:00;6.50;;;4.57;;
28958;SDS011;16066;0.000;0.000;2023-04-15T07:12:27;6.60;;;4.00;;
28958;SDS011;16066;0.000;0.000;2023-04-15T07:14:52;7.27;;;4.03;;
28958;SDS011;16066;0.000;0.000;2023-04-15T07:17:18;7.57;;;4.43;;
28958;SDS011;16066;0.000;0.000;2023-04-15T07:19:43;6.37;;;4.50;;
28958;SDS011;16066;0.000;0.000;2023-04-15T07:22:09;7.90;;;3.87;;
28958;SDS011;16066;0.000;0.000;2023-04-15T07:24:35;5.00;;;3.43;;
28958;SDS011;16066;0.000;0.000;2023-04-15T07:27:00;6.90;;;3.70;;
28958;SDS011;16066;0.000;0.000;2023-04-15T07:29:26;3.93;;;3.40;;
28958;SDS011;16066;0.000;0.000;2023-04-15T07:31:51;4.30;;;3.50;;
28958;SDS011;16066;0.000;0.000;2023-04-15T07:34:18;5.07;;;3.27;;
28958;SDS011;16066;0.000;0.000;2023-04-15T07:36:43;6.17;;;3.93;;
28958;SDS011;16066;0.000;0.000;2023-04-15T07:39:10;6.13;;;3.07;;
28958;SDS011;16066;0.000;0.000;2023-04-15T07:41:35;7.23;;;2.90;;
28958;SDS011;16066;0.000;0.000;2023-04-15T07:44:02;8.23;;;3.33;;
28958;SDS011;16066;0.000;0.000;2023-04-15T07:46:27;5.50;;;2.93;;
28958;SDS011;16066;0.000;0.000;2023-04-15T07:48:53;3.83;;;2.97;;
28958;SDS011;16066;0.000;0.000;2023-04-15T07:51:19;4.10;;;2.53;;
28958;SDS011;16066;0.000;0.000;2023-04-15T07:53:45;3.87;;;2.17;;
28958;SDS011;16066;0.000;0.000;2023-04-15T07:56:12;4.03;;;2.63;;
28958;SDS011;16066;0.000;0.000;2023-04-15T07:58:37;4.17;;;3.10;;
28958;SDS011;16066;0.000;0.000;2023-04-15T08:01:03;5.93;;;3.17;;
28958;SDS011;16066;0.000;0.000;2023-04-15T08:03:29;4.57;;;3.17;;
28958;SDS011;16066;0.000;0.000;2023-04-15T08:05:55;5.60;;;3.37;;
28958;SDS011;16066;0.000;0.000;2023-04-15T08:08:20;5.50;;;4.00;;
28958;SDS011;16066;0.000;0.000;2023-04-15T08:10:46;7.13;;;3.40;;
28958;SDS011;16066;0.000;0.000;2023-04-15T08:13:11;4.10;;;3.67;;
28958;SDS011;16066;0.000;0.000;2023-04-15T08:15:37;4.23;;;3.20;;
28958;SDS011;16066;0.000;0.000;2023-04-15T08:18:02;6.70;;;3.70;;
28958;SDS011;16066;0.000;0.000;2023-04-15T08:20:28;4.77;;;3.27;;
28958;SDS011;16066;0.000;0.000;2023-04-15T08:22:54;4.70;;;3.40;;
28958;SDS011;16066;0.000;0.000;2023-04-15T08:25:19;4.67;;;3.33;;
28958;SDS011;16066;0.000;0.000;2023-04-15T08:27:45;2.97;;;2.60;;
28958;SDS011;16066;0.000;0.000;2023-04-15T08:30:11;2.77;;;2.10;;
28958;SDS011;16066;0.000;0.000;2023-04-15T08:32:37;5.40;;;2.47;;
28958;SDS011;16066;0.000;0.000;2023-04-15T08:35:02;2.90;;;2.13;;
28958;SDS011;16066;0.000;0.000;2023-04-15T08:37:28;4.23;;;2.27;;
28958;SDS011;16066;0.000;0.000;2023-04-15T08:39:54;2.43;;;2.00;;
28958;SDS011;16066;0.000;0.000;2023-04-15T08:42:22;2.03;;;1.83;;
28958;SDS011;16066;0.000;0.000;2023-04-15T08:45:00;2.70;;;1.77;;
28958;SDS011;16066;0.000;0.000;2023-04-15T08:47:29;2.27;;;1.93;;
28958;SDS011;16066;0.000;0.000;2023-04-15T08:49:57;2.20;;;1.70;;
28958;SDS011;16066;0.000;0.000;2023-04-15T08:52:25;5.80;;;2.67;;
28958;SDS011;16066;0.000;0.000;2023-04-15T08:54:52;6.00;;;2.30;;
28958;SDS011;16066;0.000;0.000;2023-04-15T08:57:23;8.90;;;2.70;;
28958;SDS011;16066;0.000;0.000;2023-04-15T08:59:51;3.53;;;1.83;;
28958;SDS011;16066;0.000;0.000;2023-04-15T09:02:17;9.63;;;2.33;;
28958;SDS011;16066;0.000;0.000;2023-04-15T09:04:43;3.10;;;1.80;;
28958;SDS011;16066;0.000;0.000;2023-04-15T09:07:08;3.07;;;2.10;;
28958;SDS011;16066;0.000;0.000;2023-04-15T09:09:34;2.83;;;1.93;;
28958;SDS011;16066;0.000;0.000;2023-04-15T09:12:01;3.13;;;2.17;;
28958;SDS011;16066;0.000;0.000;2023-04-15T09:14:27;4.30;;;2.47;;
28958;SDS011;16066;0.000;0.000;2023-04-15T09:16:59;5.00;;;2.53;;
28958;SDS011;16066;0.000;0.000;2023-04-15T09:19:26;3.50;;;3.17;;
28958;SDS011;16066;0.000;0.000;2023-04-15T09:21:53;3.60;;;2.40;;
28958;SDS011;16066;0.000;0.000;2023-04-15T09:24:23;3.10;;;2.03;;
28958;SDS011;16066;0.000;0.000;2023-04-15T09:26:52;4.37;;;2.20;;
28958;SDS011;16066;0.000;0.000;2023-04-15T09:29:23;5.10;;;2.43;;
28958;SDS011;16066;0.000;0.000;2023-04-15T09:31:50;7.03;;;2.33;;
28958;SDS011;16066;0.000;0.000;2023-04-15T09:34:16;3.00;;;2.50;;
28958;SDS011;16066;0.000;0.000;2023-04-15T09:39:17;4.33;;;2.83;;
28958;SDS011;16066;0.000;0.000;2023-04-15T09:41:42;4.50;;;3.17;;
28958;SDS011;16066;0.000;0.000;2023-04-15T09:44:24;2.40;;;2.20;;
28958;SDS011;16066;0.000;0.000;2023-04-15T09:46:50;2.90;;;2.30;;
28958;SDS011;16066;0.000;0.000;2023-04-15T09:49:16;3.17;;;2.30;;
28958;SDS011;16066;0.000;0.000;2023-04-15T09:51:42;2.73;;;2.00;;
28958;SDS011;16066;0.000;0.000;2023-04-15T09:54:08;2.50;;;2.23;;
28958;SDS011;16066;0.000;0.000;2023-04-15T09:56:34;2.87;;;2.13;;
28958;SDS011;16066;0.000;0.000;2023-04-15T09:59:02;3.20;;;2.37;;
28958;SDS011;16066;0.000;0.000;2023-04-15T10:01:29;2.67;;;2.17;;
28958;SDS011;16066;0.000;0.000;2023-04-15T10:03:55;2.83;;;2.27;;
28958;SDS011;16066;0.000;0.000;2023-04-15T10:06:22;2.93;;;2.50;;
28958;SDS011;16066;0.000;0.000;2023-04-15T10:08:50;2.43;;;2.20;;
28958;SDS011;16066;0.000;0.000;2023-04-15T10:11:17;2.67;;;2.47;;
28958;SDS011;16066;0.000;0.000;2023-04-15T10:13:43;3.57;;;2.30;;
28958;SDS011;16066;0.000;0.000;2023-04-15T10:16:12;2.27;;;2.07;;
28958;SDS011;16066;0.000;0.000;2023-04-15T10:18:41;4.60;;;3.60;;
28958;SDS011;16066;0.000;0.000;2023-04-15T10:21:08;3.10;;;2.50;;
28958;SDS011;16066;0.000;0.000;2023-04-15T10:23:34;5.07;;;2.87;;
28958;SDS011;16066;0.000;0.000;2023-04-15T10:26:00;4.63;;;3.27;;
28958;SDS011;16066;0.000;0.000;2023-04-15T10:28:26;3.10;;;2.77;;
28958;SDS011;16066;0.000;0.000;2023-04-15T10:30:52;3.67;;;2.70;;
28958;SDS011;16066;0.000;0.000;2023-04-15T10:33:19;2.90;;;2.30;;
28958;SDS011;16066;0.000;0.000;2023-04-15T10:35:50;4.20;;;3.20;;
28958;SDS011;16066;0.000;0.000;2023-04-15T10:41:26;4.03;;;3.20;;
28958;SDS011;16066;0.000;0.000;2023-04-15T10:43:56;3.20;;;2.90;;
28958;SDS011;16066;0.000;0.000;2023-04-15T10:46:35;6.43;;;2.97;;
28958;SDS011;16066;0.000;0.000;2023-04-15T10:49:08;2.83;;;2.33;;
28958;SDS011;16066;0.000;0.000;2023-04-15T10:51:38;5.03;;;3.00;;
28958;SDS011;16066;0.000;0.000;2023-04-15T10:54:15;3.20;;;2.50;;
28958;SDS011;16066;0.000;0.000;2023-04-15T10:59:29;5.33;;;2.40;;
28958;SDS011;16066;0.000;0.000;2023-04-15T11:01:59;4.73;;;2.30;;
28958;SDS011;16066;0.000;0.000;2023-04-15T11:13:05;6.30;;;2.53;;
28958;SDS011;16066;0.000;0.000;2023-04-15T11:15:41;6.73;;;2.10;;
28958;SDS011;16066;0.000;0.000;2023-04-15T11:20:44;8.57;;;2.10;;
28958;SDS011;16066;0.000;0.000;2023-04-15T11:23:19;3.10;;;2.33;;
28958;SDS011;16066;0.000;0.000;2023-04-15T11:25:55;4.23;;;2.80;;
28958;SDS011;16066;0.000;0.000;2023-04-15T11:28:24;4.13;;;2.40;;
28958;SDS011;16066;0.000;0.000;2023-04-15T11:30:51;6.07;;;2.50;;
28958;SDS011;16066;0.000;0.000;2023-04-15T11:33:16;4.43;;;2.17;;
28958;SDS011;16066;0.000;0.000;2023-04-15T11:35:42;4.03;;;2.83;;
28958;SDS011;16066;0.000;0.000;2023-04-15T11:38:08;6.03;;;2.47;;
28958;SDS011;16066;0.000;0.000;2023-04-15T11:40:36;3.20;;;2.07;;
28958;SDS011;16066;0.000;0.000;2023-04-15T11:43:02;4.17;;;2.50;;
28958;SDS011;16066;0.000;0.000;2023-04-15T11:45:28;14.87;;;3.13;;
28958;SDS011;16066;0.000;0.000;2023-04-15T11:47:54;5.33;;;2.70;;
28958;SDS011;16066;0.000;0.000;2023-04-15T11:50:28;7.13;;;2.50;;
28958;SDS011;16066;0.000;0.000;2023-04-15T11:55:20;11.77;;;3.73;;
28958;SDS011;16066;0.000;0.000;2023-04-15T11:57:47;7.73;;;3.53;;
28958;SDS011;16066;0.000;0.000;2023-04-15T12:00:32;9.10;;;4.40;;
28958;SDS011;16066;0.000;0.000;2023-04-15T12:03:11;16.83;;;4.37;;
28958;SDS011;16066;0.000;0.000;2023-04-15T12:06:01;14.13;;;4.70;;
28958;SDS011;16066;0.000;0.000;2023-04-15T12:11:21;15.20;;;5.70;;
28958;SDS011;16066;0.000;0.000;2023-04-15T12:13:53;8.40;;;6.33;;
28958;SDS011;16066;0.000;0.000;2023-04-15T12:16:22;9.80;;;6.20;;
28958;SDS011;16066;0.000;0.000;2023-04-15T12:18:52;9.63;;;5.53;;
28958;SDS011;16066;0.000;0.000;2023-04-15T12:21:20;15.00;;;7.53;;
28958;SDS011;16066;0.000;0.000;2023-04-15T12:23:53;11.87;;;6.80;;
28958;SDS011;16066;0.000;0.000;2023-04-15T12:26:26;12.70;;;7.37;;
28958;SDS011;16066;0.000;0.000;2023-04-15T12:29:03;10.10;;;7.40;;
28958;SDS011;16066;0.000;0.000;2023-04-15T12:31:29;12.73;;;7.90;;
28958;SDS011;16066;0.000;0.000;2023-04-15T12:33:56;12.70;;;7.93;;
28958;SDS011;16066;0.000;0.000;2023-04-15T12:36:23;12.53;;;8.40;;
28958;SDS011;16066;0.000;0.000;2023-04-15T12:38:48;10.73;;;7.70;;
28958;SDS011;16066;0.000;0.000;2023-04-15T12:41:14;14.33;;;8.20;;
28958;SDS011;16066;0.000;0.000;2023-04-15T12:43:40;11.17;;;8.37;;
28958;SDS011;16066;0.000;0.000;2023-04-15T12:46:06;15.80;;;9.10;;
28958;SDS011;16066;0.000;0.000;2023-04-15T12:48:32;14.07;;;9.17;;
28958;SDS011;16066;0.000;0.000;2023-04-15T12:50:58;14.13;;;9.27;;
28958;SDS011;16066;0.000;0.000;2023-04-15T12:53:24;13.63;;;8.97;;
28958;SDS011;16066;0.000;0.000;2023-04-15T12:55:50;13.90;;;8.87;;
28958;SDS011;16066;0.000;0.000;2023-04-15T12:58:16;13.17;;;8.20;;
28958;SDS011;16066;0.000;0.000;2023-04-15T13:00:41;12.13;;;8.10;;
28958;SDS011;16066;0.000;0.000;2023-04-15T13:03:07;15.73;;;9.70;;
28958;SDS011;16066;0.000;0.000;2023-04-15T13:05:32;13.90;;;9.27;;
28958;SDS011;16066;0.000;0.000;2023-04-15T13:07:58;13.80;;;9.93;;
28958;SDS011;16066;0.000;0.000;2023-04-15T13:10:23;18.43;;;12.90;;
28958;SDS011;16066;0.000;0.000;2023-04-15T13:12:50;22.40;;;17.00;;
28958;SDS011;16066;0.000;0.000;2023-04-15T13:15:17;20.87;;;14.67;;
28958;SDS011;16066;0.000;0.000;2023-04-15T13:17:45;18.20;;;13.80;;
28958;SDS011;16066;0.000;0.000;2023-04-15T13:20:10;18.20;;;12.40;;
28958;SDS011;16066;0.000;0.000;2023-04-15T13:22:36;18.50;;;11.93;;
28958;SDS011;16066;0.000;0.000;2023-04-15T13:25:02;22.20;;;14.07;;
28958;SDS011;16066;0.000;0.000;2023-04-15T13:27:27;22.57;;;13.07;;
28958;SDS011;16066;0.000;0.000;2023-04-15T13:29:53;21.70;;;15.50;;
28958;SDS011;16066;0.000;0.000;2023-04-15T13:32:18;30.17;;;21.07;;
28958;SDS011;16066;0.000;0.000;2023-04-15T13:34:44;28.27;;;19.70;;
28958;SDS011;16066;0.000;0.000;2023-04-15T13:37:10;35.03;;;18.70;;
28958;SDS011;16066;0.000;0.000;2023-04-15T13:39:35;33.13;;;23.03;;
28958;SDS011;16066;0.000;0.000;2023-04-15T13:42:01;29.03;;;21.20;;
28958;SDS011;16066;0.000;0.000;2023-04-15T13:44:27;25.80;;;19.70;;
28958;SDS011;16066;0.000;0.000;2023-04-15T13:46:52;25.20;;;19.07;;
28958;SDS011;16066;0.000;0.000;2023-04-15T13:49:18;30.30;;;19.43;;
28958;SDS011;16066;0.000;0.000;2023-04-15T13:51:43;28.47;;;19.70;;
28958;SDS011;16066;0.000;0.000;2023-04-15T13:54:09;28.27;;;19.73;;
28958;SDS011;16066;0.000;0.000;2023-04-15T13:56:34;27.87;;;20.57;;
28958;SDS011;16066;0.000;0.000;2023-04-15T13:59:00;28.50;;;21.60;;
28958;SDS011;16066;0.000;0.000;2023-04-15T14:01:27;29.00;;;20.40;;
28958;SDS011;16066;0.000;0.000;2023-04-15T14:03:53;26.70;;;20.73;;
28958;SDS011;16066;0.000;0.000;2023-04-15T14:06:18;29.33;;;21.40;;
28958;SDS011;16066;0.000;0.000;2023-04-15T14:08:44;27.07;;;20.60;;
28958;SDS011;16066;0.000;0.000;2023-04-15T14:11:09;30.30;;;21.97;;
28958;SDS011;16066;0.000;0.000;2023-04-15T14:13:35;30.07;;;21.23;;
28958;SDS011;16066;0.000;0.000;2023-04-15T14:16:00;31.80;;;22.90;;
28958;SDS011;16066;0.000;0.000;2023-04-15T14:18:26;27.23;;;21.40;;
28958;SDS011;16066;0.000;0.000;2023-04-15T14:20:52;30.20;;;22.30;;
28958;SDS011;16066;0.000;0.000;2023-04-15T14:23:18;29.83;;;21.83;;
28958;SDS011;16066;0.000;0.000;2023-04-15T14:25:43;30.07;;;21.70;;
28958;SDS011;16066;0.000;0.000;2023-04-15T14:28:09;31.70;;;22.47;;
28958;SDS011;16066;0.000;0.000;2023-04-15T14:30:34;30.13;;;22.80;;
28958;SDS011;16066;0.000;0.000;2023-04-15T14:33:00;31.77;;;22.60;;
28958;SDS011;16066;0.000;0.000;2023-04-15T14:35:25;32.20;;;23.57;;
28958;SDS011;16066;0.000;0.000;2023-04-15T14:37:52;37.20;;;25.07;;
28958;SDS011;16066;0.000;0.000;2023-04-15T14:40:18;35.63;;;24.70;;
28958;SDS011;16066;0.000;0.000;2023-04-15T14:42:44;33.83;;;24.40;;
28958;SDS011;16066;0.000;0.000;2023-04-15T14:45:10;35.77;;;24.53;;
28958;SDS011;16066;0.000;0.000;2023-04-15T14:47:35;34.60;;;23.33;;
28958;SDS011;16066;0.000;0.000;2023-04-15T14:50:01;34.17;;;24.40;;
28958;SDS011;16066;0.000;0.000;2023-04-15T14:52:27;31.53;;;23.80;;
28958;SDS011;16066;0.000;0.000;2023-04-15T14:54:54;37.47;;;22.50;;
28958;SDS011;16066;0.000;0.000;2023-04-15T14:57:20;30.53;;;22.23;;
28958;SDS011;16066;0.000;0.000;2023-04-15T14:59:45;31.87;;;24.33;;
28958;SDS011;16066;0.000;0.000;2023-04-15T15:02:11;36.20;;;23.10;;
28958;SDS011;16066;0.000;0.000;2023-04-15T15:04:37;33.50;;;22.27;;
28958;SDS011;16066;0.000;0.000;2023-04-15T15:07:04;36.50;;;21.37;;
28958;SDS011;16066;0.000;0.000;2023-04-15T15:09:30;33.60;;;21.60;;
28958;SDS011;16066;0.000;0.000;2023-04-15T15:11:56;29.63;;;19.10;;
28958;SDS011;16066;0.000;0.000;2023-04-15T15:14:21;30.50;;;18.97;;
28958;SDS011;16066;0.000;0.000;2023-04-15T15:16:47;26.30;;;18.90;;